Wolf Run, OH

11:49 PM EST on January 24, 2015 (GMT -0500)
Sunset Gardens | Change Station
CLOSE
Current Station
Personal Weather Station
Location: Wintersville, OH
Elevation: 1150 ft
Nearby Weather Stations

Elev 1150 ft 40.38 °N, 80.72 °W | Updated 4 minutes ago

Overcast
Overcast
31.7 °F
Feels Like 32 °F
N
3.0
Wind Variable Wind from SW
Gusts 5.0 mph

Today
High -- | Low -- °F
--% Chance of Precip.
Yesterday
High -- | Low -- °F
Precip. -- in
7:39 AM 5:31 PM
Waxing Crescent, 28% visible
Pressure 29.72 in
Visibility 5.0 miles
Clouds Overcast 1100 ft
Windchill 32 °F
Dew Point 30 °F
Humidity 93%
Rainfall 0.02 in
Snow Depth Not available.
UV 0 out of 12
Pollen .10 out of 12
Air Quality Not available.
Flu Activity Not available.
SPECI KHLG 250425Z 25008KT 5SM BR OVC011 00/M02 A2972 RMK AO2 T00001017

More Conditions Fewer Conditions

Pressure 29.72 in
Visibility 5.0 miles
Clouds Overcast 1100 ft
Windchill 32 °F
Dew Point 30 °F
Humidity 93%
Rainfall 0.02 in
Snow Depth Not available.
UV 0 out of 12
Pollen .10 out of 12
Air Quality Not available.
Flu Activity Not available.
SPECI KHLG 250425Z 25008KT 5SM BR OVC011 00/M02 A2972 RMK AO2 T00001017

More Conditions Fewer Conditions

10-Day Weather Forecast

Almanac

Astronomy

Jan. 24, 2015 Rise Set
Actual Time
Civil Twilight
Nautical Twilight
Astronomical Twilight
Moon
Length of Visible Light
Length of Day
Tomorrow will be .
, % of the Moon is Illuminated

Today's Extremes

State Highs State Lows

Community

WunderPhotos

Upload Photos

1,789,839 photos uploaded!

WunderBlogs® & News

Nearby

Air Quality

  Air Quality AQ Index Pollutant
Not available.

Snow Depth

Station Depth Elevation

Earthquake Activity

City Distance Mag. Time & Date
Minimum magnitude displayed is 2.5.

Coastal Water Temperatures

Place Temperature

Nearby Weather Stations